Time;durP1;ratioP1;P1;durP2;ratioP2;P2;SDS_P1;SDS_P2;PMS_P1;PMS_P2;Temp;Humidity;BMP_temperature;BMP_pressure;BME280_temperature;BME280_humidity;BME280_pressure;Samples;Min_cycle;Max_cycle;Signal;HPM_P1;HPM_P2
2023/08/01 00:01:15;;;;;;;6.50;4.60;;;18.60;1.00;;;;;;5116599;27;21031;-72
2023/08/01 00:03:41;;;;;;;6.70;5.37;;;18.60;1.00;;;;;;5118702;27;20922;-73
2023/08/01 00:06:08;;;;;;;5.70;5.20;;;18.50;1.00;;;;;;5116966;27;20456;-81
2023/08/01 00:08:35;;;;;;;6.00;5.40;;;18.50;1.00;;;;;;5116782;27;20479;-80
2023/08/01 00:11:02;;;;;;;7.73;5.70;;;18.40;1.00;;;;;;5117732;27;20524;-72
2023/08/01 00:13:29;;;;;;;6.03;5.33;;;18.40;1.00;;;;;;5115490;27;20958;-72
2023/08/01 00:15:57;;;;;;;6.20;5.00;;;18.30;1.00;;;;;;5117973;27;20453;-72
2023/08/01 00:18:28;;;;;;;5.93;5.33;;;18.20;1.00;;;;;;5109834;27;20910;-72
2023/08/01 00:20:56;;;;;;;6.83;5.10;;;18.10;1.00;;;;;;5095685;28;20471;-72
2023/08/01 00:23:23;;;;;;;6.83;5.33;;;18.00;1.00;;;;;;5118664;27;20919;-71
2023/08/01 00:25:51;;;;;;;6.17;5.00;;;17.90;1.00;;;;;;5118582;27;20559;-73
2023/08/01 00:28:19;;;;;;;5.80;5.30;;;17.90;1.00;;;;;;5119882;27;20936;-73
2023/08/01 00:30:46;;;;;;;6.77;5.00;;;17.80;1.00;;;;;;5116153;27;22056;-73
2023/08/01 00:33:13;;;;;;;6.23;4.90;;;17.80;1.00;;;;;;5116061;27;20468;-72
2023/08/01 00:45:47;;;;;;;4.87;4.30;;;17.50;1.00;;;;;;5103670;27;20505;-72
2023/08/01 00:48:14;;;;;;;4.60;4.20;;;17.40;1.00;;;;;;5106993;27;20515;-72
2023/08/01 00:50:41;;;;;;;4.30;3.93;;;17.40;1.00;;;;;;5110875;27;20533;-73
2023/08/01 00:53:09;;;;;;;4.30;3.23;;;17.30;1.00;;;;;;5096608;27;20466;-72
2023/08/01 00:55:36;;;;;;;4.10;3.70;;;17.30;1.00;;;;;;5117142;27;20466;-79
2023/08/01 00:58:03;;;;;;;4.10;3.70;;;17.30;1.00;;;;;;5120962;27;20480;-73
2023/08/01 01:00:30;;;;;;;3.80;3.50;;;17.30;1.00;;;;;;5118417;27;20466;-74
2023/08/01 01:03:01;;;;;;;3.67;3.37;;;17.30;1.00;;;;;;5106146;27;20473;-72
2023/08/01 01:05:33;;;;;;;4.23;3.63;;;17.20;1.00;;;;;;5111244;27;20475;-72
2023/08/01 01:08:03;;;;;;;4.73;3.87;;;17.20;1.00;;;;;;5110441;27;21371;-72
2023/08/01 01:10:30;;;;;;;4.40;4.00;;;17.20;1.00;;;;;;5118154;27;20914;-72
2023/08/01 01:12:56;;;;;;;4.67;4.27;;;17.20;1.00;;;;;;5092027;27;20845;-72
2023/08/01 01:15:23;;;;;;;4.47;3.90;;;17.10;1.00;;;;;;5105895;27;20450;-72
2023/08/01 01:17:50;;;;;;;4.67;4.10;;;17.20;1.00;;;;;;5117673;27;20562;-72
2023/08/01 01:20:23;;;;;;;4.53;4.13;;;17.20;1.00;;;;;;5118764;27;20511;-72
2023/08/01 01:22:53;;;;;;;6.20;4.30;;;17.30;1.00;;;;;;5100777;27;20529;-73
2023/08/01 01:25:22;;;;;;;4.33;3.93;;;17.30;1.00;;;;;;5101796;28;20451;-74
2023/08/01 01:27:52;;;;;;;5.30;4.30;;;17.30;1.00;;;;;;5099518;27;21052;-72
2023/08/01 01:30:20;;;;;;;5.57;4.10;;;17.30;1.00;;;;;;5094746;28;20458;-72
2023/08/01 01:32:47;;;;;;;5.50;5.00;;;17.30;1.00;;;;;;5099274;28;20479;-74
2023/08/01 01:35:15;;;;;;;5.27;4.07;;;17.30;1.00;;;;;;5095449;28;20459;-71
2023/08/01 01:37:42;;;;;;;4.63;4.13;;;17.30;1.00;;;;;;5099050;28;20485;-74
2023/08/01 01:40:11;;;;;;;9.00;5.03;;;17.30;1.00;;;;;;5099469;27;20487;-72
2023/08/01 01:42:38;;;;;;;6.63;5.30;;;17.20;1.00;;;;;;5099185;28;20482;-73
2023/08/01 01:45:07;;;;;;;6.90;5.50;;;17.20;1.00;;;;;;5094350;28;20505;-73
2023/08/01 01:47:37;;;;;;;5.57;5.03;;;17.20;1.00;;;;;;5091108;28;20469;-72
2023/08/01 01:50:06;;;;;;;5.20;4.70;;;17.20;1.00;;;;;;5106570;28;20488;-73
2023/08/01 01:52:33;;;;;;;7.47;4.70;;;17.20;1.00;;;;;;5097935;27;20998;-71
2023/08/01 01:55:00;;;;;;;5.70;5.20;;;17.20;1.00;;;;;;5103321;27;20490;-72
2023/08/01 01:57:28;;;;;;;8.00;5.13;;;17.10;1.00;;;;;;5096168;28;20479;-72
2023/08/01 01:59:55;;;;;;;6.23;5.63;;;17.10;1.00;;;;;;5096608;28;20463;-72
2023/08/01 02:02:25;;;;;;;6.43;5.83;;;17.10;1.00;;;;;;5096742;27;20459;-72
2023/08/01 02:04:53;;;;;;;8.03;5.60;;;17.20;1.00;;;;;;5096128;28;20512;-72
2023/08/01 02:07:20;;;;;;;6.93;5.63;;;17.20;1.00;;;;;;5095372;28;20452;-72
2023/08/01 02:09:47;;;;;;;7.33;6.20;;;17.10;1.00;;;;;;5101688;28;20497;-71
2023/08/01 02:12:14;;;;;;;6.63;5.83;;;17.10;1.00;;;;;;5097870;28;20443;-72
2023/08/01 02:14:43;;;;;;;6.10;5.50;;;17.10;1.00;;;;;;5096434;27;20454;-72
2023/08/01 02:17:10;;;;;;;6.77;6.07;;;17.10;1.00;;;;;;5095852;28;20473;-72
2023/08/01 02:19:37;;;;;;;6.07;5.40;;;17.10;1.00;;;;;;5100449;28;20534;-70
2023/08/01 02:22:04;;;;;;;6.87;6.27;;;17.10;1.00;;;;;;5091638;28;20985;-71
2023/08/01 02:24:32;;;;;;;6.80;5.70;;;17.10;1.00;;;;;;5100219;28;20561;-72
2023/08/01 02:26:59;;;;;;;9.57;6.50;;;17.10;1.00;;;;;;5092747;27;20479;-71
2023/08/01 02:29:27;;;;;;;6.23;5.73;;;17.10;1.00;;;;;;5092358;28;21174;-74
2023/08/01 02:31:56;;;;;;;7.10;6.47;;;17.10;1.00;;;;;;5097043;28;20486;-72
2023/08/01 02:34:23;;;;;;;6.30;5.70;;;17.10;1.00;;;;;;5098674;28;20454;-72
2023/08/01 02:36:50;;;;;;;6.47;5.97;;;17.10;1.00;;;;;;5111323;27;20462;-71
2023/08/01 02:39:17;;;;;;;7.17;6.57;;;17.10;1.00;;;;;;5114249;27;20557;-71
2023/08/01 02:41:44;;;;;;;9.77;6.53;;;17.10;1.00;;;;;;5117201;27;20465;-78
2023/08/01 02:44:10;;;;;;;6.00;5.50;;;17.10;1.00;;;;;;5114646;27;20446;-71
2023/08/01 02:46:37;;;;;;;8.03;6.93;;;17.10;1.00;;;;;;5111733;27;20549;-71
2023/08/01 02:49:06;;;;;;;8.07;7.00;;;17.10;1.00;;;;;;5104197;27;20454;-72
2023/08/01 02:51:33;;;;;;;7.07;6.37;;;17.10;1.00;;;;;;5114316;27;20466;-72
2023/08/01 02:53:59;;;;;;;8.80;6.63;;;17.10;1.00;;;;;;5106523;27;20541;-71
2023/08/01 02:56:27;;;;;;;7.53;6.83;;;17.10;1.00;;;;;;5111004;27;20559;-71
2023/08/01 02:58:55;;;;;;;9.67;6.50;;;17.10;1.00;;;;;;5114687;27;20552;-71
2023/08/01 03:01:22;;;;;;;6.70;6.13;;;17.10;1.00;;;;;;5105705;27;20469;-72
2023/08/01 03:03:49;;;;;;;6.10;5.50;;;17.10;1.00;;;;;;5098215;28;20998;-71
2023/08/01 03:06:18;;;;;;;6.67;6.07;;;17.10;1.00;;;;;;5096732;27;20459;-71
2023/08/01 03:08:45;;;;;;;7.53;6.57;;;17.10;1.00;;;;;;5092495;28;20563;-73
2023/08/01 03:11:11;;;;;;;6.70;6.10;;;17.10;1.00;;;;;;5096950;28;20474;-72
2023/08/01 03:13:38;;;;;;;6.80;6.20;;;17.10;1.00;;;;;;5096215;28;20458;-72
2023/08/01 03:16:05;;;;;;;8.63;6.30;;;17.10;1.00;;;;;;5097837;28;20458;-72
2023/08/01 03:18:32;;;;;;;6.43;5.40;;;17.10;1.00;;;;;;5099970;28;20458;-72
2023/08/01 03:20:59;;;;;;;7.43;5.93;;;17.10;1.00;;;;;;5096787;28;20528;-72
2023/08/01 03:23:27;;;;;;;5.93;5.43;;;17.10;1.00;;;;;;5090754;28;20458;-71
2023/08/01 03:25:54;;;;;;;7.77;6.30;;;17.00;1.00;;;;;;5094738;27;20463;-73
2023/08/01 03:28:21;;;;;;;7.90;5.70;;;17.10;1.00;;;;;;5094589;28;20490;-70
2023/08/01 03:30:49;;;;;;;6.70;5.70;;;17.10;1.00;;;;;;5099031;27;20451;-71
2023/08/01 03:33:16;;;;;;;6.33;5.80;;;17.10;1.00;;;;;;5098601;28;20468;-72
2023/08/01 03:35:43;;;;;;;7.10;5.30;;;17.20;1.00;;;;;;5103684;27;20562;-73
2023/08/01 03:38:10;;;;;;;6.23;5.73;;;17.20;1.00;;;;;;5099661;28;20920;-74
2023/08/01 03:40:39;;;;;;;6.57;5.90;;;17.20;1.00;;;;;;5101504;28;20482;-72
2023/08/01 03:43:06;;;;;;;6.67;5.20;;;17.20;1.00;;;;;;5097447;27;20463;-72
2023/08/01 03:45:34;;;;;;;6.93;6.17;;;17.20;1.00;;;;;;5100707;27;20891;-72
2023/08/01 03:48:01;;;;;;;6.67;5.90;;;17.20;1.00;;;;;;5102426;27;20891;-72
2023/08/01 03:50:30;;;;;;;5.60;5.00;;;17.30;1.00;;;;;;5104155;27;20949;-72
2023/08/01 03:52:56;;;;;;;6.50;5.90;;;17.30;1.00;;;;;;5098815;28;20933;-72
2023/08/01 03:55:23;;;;;;;5.17;4.63;;;17.30;1.00;;;;;;5099685;28;20450;-71
2023/08/01 03:57:52;;;;;;;6.67;6.03;;;17.30;1.00;;;;;;5096241;28;20477;-71
2023/08/01 04:00:19;;;;;;;5.53;5.03;;;17.30;1.00;;;;;;5097720;27;20471;-71
2023/08/01 04:02:46;;;;;;;6.00;5.50;;;17.40;1.00;;;;;;5094255;27;20546;-73
2023/08/01 04:05:13;;;;;;;6.30;5.27;;;17.40;1.00;;;;;;5097385;27;21009;-73
2023/08/01 04:07:40;;;;;;;5.40;5.00;;;17.40;1.00;;;;;;5104976;27;20474;-72
2023/08/01 04:10:08;;;;;;;6.13;5.53;;;17.40;1.00;;;;;;5100357;28;20572;-72
2023/08/01 04:12:35;;;;;;;6.37;5.60;;;17.40;1.00;;;;;;5096086;28;20902;-73
2023/08/01 04:15:04;;;;;;;6.10;5.03;;;17.40;1.00;;;;;;5095853;28;21045;-73
2023/08/01 04:17:31;;;;;;;5.27;4.60;;;17.40;1.00;;;;;;5096570;28;20562;-73
2023/08/01 04:19:58;;;;;;;5.97;5.20;;;17.50;1.00;;;;;;5091956;28;20478;-72
2023/08/01 04:22:25;;;;;;;5.60;4.97;;;17.60;1.00;;;;;;5098120;28;20468;-70
2023/08/01 04:24:52;;;;;;;6.77;5.47;;;17.60;1.00;;;;;;5098111;27;20546;-72
2023/08/01 04:27:20;;;;;;;5.73;5.13;;;17.70;1.00;;;;;;5097344;28;20499;-71
2023/08/01 04:29:48;;;;;;;5.70;5.00;;;17.70;1.00;;;;;;5096919;28;20582;-71
2023/08/01 04:32:16;;;;;;;5.40;4.90;;;17.70;1.00;;;;;;5098798;27;20456;-73
2023/08/01 04:34:43;;;;;;;5.23;4.70;;;17.70;1.00;;;;;;5099294;27;21095;-70
2023/08/01 04:37:11;;;;;;;4.53;4.00;;;17.70;1.00;;;;;;5096043;28;20512;-71
2023/08/01 04:39:38;;;;;;;5.80;5.30;;;17.70;1.00;;;;;;5089295;28;20467;-71
2023/08/01 04:42:05;;;;;;;6.97;5.63;;;17.70;1.00;;;;;;5095790;28;20538;-71
2023/08/01 04:44:32;;;;;;;5.00;4.50;;;17.80;1.00;;;;;;5102152;27;20483;-71
2023/08/01 04:46:59;;;;;;;6.60;4.53;;;17.80;1.00;;;;;;5117252;27;20551;-70
2023/08/01 04:49:28;;;;;;;4.80;4.37;;;17.90;1.00;;;;;;5120453;27;20906;-72
2023/08/01 04:51:56;;;;;;;5.40;4.90;;;17.90;1.00;;;;;;5108172;27;20481;-72
2023/08/01 04:54:23;;;;;;;5.13;4.20;;;17.90;1.00;;;;;;5114751;27;20518;-69
2023/08/01 04:56:50;;;;;;;5.97;4.17;;;18.00;1.00;;;;;;5103303;27;20466;-72
2023/08/01 04:59:17;;;;;;;5.83;4.10;;;18.00;1.00;;;;;;5107587;27;20577;-71
2023/08/01 05:01:43;;;;;;;5.50;4.90;;;18.00;1.00;;;;;;5111913;27;20460;-71
2023/08/01 05:04:11;;;;;;;5.63;5.00;;;18.10;1.00;;;;;;5115762;27;20521;-71
2023/08/01 05:06:40;;;;;;;5.00;4.50;;;18.10;1.00;;;;;;5113613;27;21021;-71
2023/08/01 05:09:07;;;;;;;5.70;4.50;;;18.10;1.00;;;;;;5103701;27;21003;-73
2023/08/01 05:11:34;;;;;;;5.93;4.67;;;18.00;1.00;;;;;;5108235;27;20455;-73
2023/08/01 05:14:01;;;;;;;4.97;4.57;;;18.00;1.00;;;;;;5114863;27;20569;-72
2023/08/01 05:16:28;;;;;;;5.83;5.30;;;18.00;1.00;;;;;;5106762;27;20515;-72
2023/08/01 05:18:55;;;;;;;4.87;4.40;;;18.00;1.00;;;;;;5094632;28;20561;-71
2023/08/01 05:21:22;;;;;;;5.87;4.83;;;18.10;1.00;;;;;;5094884;28;20956;-71
2023/08/01 05:23:51;;;;;;;5.60;5.10;;;18.10;1.00;;;;;;5096955;27;20460;-72
2023/08/01 05:26:18;;;;;;;4.57;4.17;;;18.10;1.00;;;;;;5095651;28;20495;-74
2023/08/01 05:28:44;;;;;;;7.60;4.70;;;18.10;1.00;;;;;;5095642;28;20548;-73
2023/08/01 05:31:11;;;;;;;6.67;5.10;;;18.10;1.00;;;;;;5096219;28;20519;-71
2023/08/01 05:33:38;;;;;;;4.80;4.30;;;18.10;1.00;;;;;;5095203;28;20935;-72
2023/08/01 05:36:06;;;;;;;7.23;4.60;;;18.20;1.00;;;;;;5094009;27;20546;-73
2023/08/01 05:38:33;;;;;;;5.47;4.37;;;18.10;1.00;;;;;;5096562;28;20986;-73
2023/08/01 05:41:01;;;;;;;4.80;4.40;;;18.20;1.00;;;;;;5095221;28;20459;-71
2023/08/01 05:43:28;;;;;;;4.97;4.43;;;18.20;1.00;;;;;;5099106;28;20465;-72
2023/08/01 05:45:55;;;;;;;5.17;4.53;;;18.30;1.00;;;;;;5095181;28;20496;-72
2023/08/01 05:48:22;;;;;;;5.10;4.60;;;18.40;1.00;;;;;;5098382;28;20515;-71
2023/08/01 05:50:49;;;;;;;5.60;5.00;;;18.50;1.00;;;;;;5108573;27;20460;-71
2023/08/01 05:53:16;;;;;;;4.80;4.20;;;18.50;1.00;;;;;;5108218;27;20539;-70
2023/08/01 05:55:43;;;;;;;4.60;4.20;;;18.60;1.00;;;;;;5112493;27;20477;-71
2023/08/01 05:58:11;;;;;;;4.70;4.20;;;18.60;1.00;;;;;;5110129;27;20481;-72
2023/08/01 06:00:38;;;;;;;4.83;4.30;;;18.60;1.00;;;;;;5119282;27;20508;-71
2023/08/01 06:03:05;;;;;;;5.00;4.43;;;18.50;1.00;;;;;;5108118;27;20532;-71
2023/08/01 06:05:32;;;;;;;4.90;4.50;;;18.50;1.00;;;;;;5115374;27;20492;-73
2023/08/01 06:07:59;;;;;;;3.97;3.57;;;18.50;1.00;;;;;;5095582;27;20554;-72
2023/08/01 06:10:26;;;;;;;4.20;3.80;;;18.50;1.00;;;;;;5097458;27;20459;-73
2023/08/01 06:12:53;;;;;;;5.80;4.30;;;18.50;1.00;;;;;;5120700;27;20531;-71
2023/08/01 06:15:22;;;;;;;7.70;4.90;;;18.50;1.00;;;;;;5115018;27;20515;-71
2023/08/01 06:17:49;;;;;;;4.90;3.87;;;18.50;1.00;;;;;;5094100;28;20480;-72
2023/08/01 06:20:15;;;;;;;6.33;4.27;;;18.60;1.00;;;;;;5095712;28;20542;-72
2023/08/01 06:22:43;;;;;;;4.70;4.30;;;18.70;1.00;;;;;;5093775;28;20456;-71
2023/08/01 06:25:10;;;;;;;6.00;5.50;;;18.60;1.00;;;;;;5098321;28;20518;-70
2023/08/01 06:27:37;;;;;;;6.27;3.80;;;18.70;1.00;;;;;;5096524;28;20556;-72
2023/08/01 06:30:06;;;;;;;5.20;3.93;;;18.70;1.00;;;;;;5097428;28;20913;-71
2023/08/01 06:32:34;;;;;;;4.10;3.60;;;18.70;1.00;;;;;;5099403;28;20458;-73
2023/08/01 06:35:01;;;;;;;4.77;4.00;;;18.80;1.00;;;;;;5096252;27;20501;-72
2023/08/01 06:37:28;;;;;;;4.27;3.77;;;18.90;1.00;;;;;;5095748;28;20474;-73
2023/08/01 06:39:56;;;;;;;4.47;3.90;;;18.90;1.00;;;;;;5095755;28;20556;-71
2023/08/01 06:42:22;;;;;;;3.60;3.30;;;19.00;1.00;;;;;;5094644;28;20462;-71
2023/08/01 06:44:49;;;;;;;3.97;3.67;;;18.90;1.00;;;;;;5106116;27;20463;-72
2023/08/01 06:47:16;;;;;;;3.77;3.43;;;18.70;1.00;;;;;;5119170;27;20606;-73
2023/08/01 06:49:44;;;;;;;4.80;4.40;;;18.50;1.00;;;;;;5118008;27;20467;-72
2023/08/01 06:52:11;;;;;;;3.73;3.43;;;18.40;1.00;;;;;;5112832;27;20540;-72
2023/08/01 06:54:39;;;;;;;4.60;3.87;;;18.30;1.00;;;;;;5115917;27;20803;-75
2023/08/01 06:57:07;;;;;;;4.33;3.93;;;18.20;1.00;;;;;;5115703;27;20545;-72
2023/08/01 06:59:34;;;;;;;5.03;3.90;;;18.20;1.00;;;;;;5115925;27;20462;-75
2023/08/01 07:02:01;;;;;;;4.20;3.70;;;18.10;1.00;;;;;;5118891;27;20455;-70
2023/08/01 07:04:28;;;;;;;3.77;3.47;;;18.10;1.00;;;;;;5107594;27;20516;-74
2023/08/01 07:06:57;;;;;;;7.33;3.87;;;18.10;1.00;;;;;;5115768;27;20966;-71
2023/08/01 07:09:25;;;;;;;4.27;3.80;;;18.00;1.00;;;;;;5101089;28;20532;-72
2023/08/01 07:11:52;;;;;;;4.50;3.77;;;18.00;1.00;;;;;;5096019;28;20967;-71
2023/08/01 07:14:19;;;;;;;4.27;3.87;;;18.00;1.00;;;;;;5096494;28;20904;-72
2023/08/01 07:16:45;;;;;;;4.17;3.87;;;18.00;1.00;;;;;;5098456;28;20492;-71
2023/08/01 07:19:12;;;;;;;4.10;3.70;;;18.10;1.00;;;;;;5092345;28;20543;-69
2023/08/01 07:21:39;;;;;;;4.60;3.77;;;18.10;1.00;;;;;;5094986;28;20536;-74
2023/08/01 07:24:07;;;;;;;3.67;3.23;;;18.20;1.00;;;;;;5094340;28;20543;-71
2023/08/01 07:26:34;;;;;;;4.50;4.07;;;18.20;1.00;;;;;;5099400;28;21136;-74
2023/08/01 07:29:01;;;;;;;5.13;4.67;;;18.30;1.00;;;;;;5098661;28;20469;-71
2023/08/01 07:31:28;;;;;;;3.90;3.60;;;18.40;1.00;;;;;;5095117;27;20468;-73
2023/08/01 07:33:55;;;;;;;5.47;4.50;;;18.60;1.00;;;;;;5099110;27;20465;-71
2023/08/01 07:36:22;;;;;;;6.70;3.60;;;18.70;1.00;;;;;;5092656;28;20468;-74
2023/08/01 07:38:49;;;;;;;4.90;3.40;;;18.90;1.00;;;;;;5094392;28;20462;-71
2023/08/01 07:41:17;;;;;;;3.43;3.13;;;19.00;1.00;;;;;;5095300;28;20493;-71
2023/08/01 07:43:44;;;;;;;3.87;3.53;;;19.20;1.00;;;;;;5101082;27;20808;-71
2023/08/01 07:46:11;;;;;;;5.97;4.93;;;19.30;1.00;;;;;;5096101;28;20561;-71
2023/08/01 07:48:39;;;;;;;3.60;3.30;;;19.40;1.00;;;;;;5093828;28;20836;-72
2023/08/01 07:51:07;;;;;;;3.70;3.33;;;19.60;1.00;;;;;;5095907;28;20483;-73
2023/08/01 07:53:34;;;;;;;2.77;2.57;;;19.80;1.00;;;;;;5097498;28;20463;-72
2023/08/01 07:56:02;;;;;;;2.80;2.60;;;19.90;1.00;;;;;;5094184;28;20527;-72
2023/08/01 07:58:31;;;;;;;4.83;3.20;;;20.10;1.00;;;;;;5089484;27;20571;-71
2023/08/01 08:00:58;;;;;;;3.13;2.83;;;20.10;1.00;;;;;;5109803;27;20481;-74
2023/08/01 08:03:25;;;;;;;3.70;2.77;;;20.00;1.00;;;;;;5098647;28;20474;-72
2023/08/01 08:05:52;;;;;;;4.00;2.80;;;20.20;1.00;;;;;;5092539;28;20478;-73
2023/08/01 08:08:19;;;;;;;3.90;3.00;;;20.50;1.00;;;;;;5094622;27;20541;-73
2023/08/01 08:10:47;;;;;;;3.70;2.87;;;20.60;1.00;;;;;;5093105;28;20950;-73
2023/08/01 08:13:15;;;;;;;3.37;2.63;;;20.50;1.00;;;;;;5093344;28;20966;-71
2023/08/01 08:15:43;;;;;;;3.07;2.87;;;20.40;1.00;;;;;;5094747;28;20544;-72
2023/08/01 08:18:10;;;;;;;5.00;2.87;;;20.60;1.00;;;;;;5095601;28;20490;-70
2023/08/01 08:20:43;;;;;;;2.77;2.50;;;20.70;1.00;;;;;;5098550;28;20450;-72
2023/08/01 08:23:10;;;;;;;4.00;2.37;;;20.80;1.00;;;;;;5100132;28;20463;-71
2023/08/01 08:25:37;;;;;;;2.83;2.60;;;21.00;1.00;;;;;;5093936;28;20503;-72
2023/08/01 08:28:05;;;;;;;3.00;2.50;;;21.20;1.00;;;;;;5099174;28;20577;-72
2023/08/01 08:30:33;;;;;;;4.23;2.73;;;21.20;1.00;;;;;;5099802;27;20455;-71
2023/08/01 08:33:04;;;;;;;2.67;2.47;;;21.40;1.00;;;;;;5099557;27;20578;-72
2023/08/01 08:35:31;;;;;;;2.50;2.30;;;21.60;1.00;;;;;;5096678;28;20479;-71
2023/08/01 08:37:59;;;;;;;2.67;2.23;;;21.80;1.00;;;;;;5098790;28;20454;-73
2023/08/01 08:40:26;;;;;;;4.00;2.27;;;22.00;1.00;;;;;;5097256;28;20960;-72
2023/08/01 08:42:54;;;;;;;3.57;2.50;;;22.10;1.00;;;;;;5096781;27;20539;-71
2023/08/01 08:45:22;;;;;;;3.60;3.30;;;22.30;1.00;;;;;;5098419;28;21006;-71
2023/08/01 08:47:57;;;;;;;4.10;3.20;;;22.60;1.00;;;;;;5096997;28;20501;-72
2023/08/01 08:50:27;;;;;;;2.97;2.27;;;22.70;1.00;;;;;;5078600;28;20458;-72
2023/08/01 08:52:55;;;;;;;2.43;2.23;;;22.80;1.00;;;;;;5119178;27;20446;-71
2023/08/01 08:55:22;;;;;;;3.17;2.10;;;22.70;1.00;;;;;;5118536;27;20472;-73
2023/08/01 08:57:52;;;;;;;4.87;2.10;;;22.80;1.00;;;;;;5104979;27;20461;-72
2023/08/01 09:00:19;;;;;;;3.10;2.10;;;22.60;1.00;;;;;;5115707;27;20442;-72
2023/08/01 09:02:46;;;;;;;3.50;2.23;;;22.50;1.00;;;;;;5123424;27;20543;-71
2023/08/01 09:05:14;;;;;;;6.40;3.00;;;22.30;1.00;;;;;;5112300;27;20921;-71
2023/08/01 09:07:44;;;;;;;2.93;2.30;;;22.30;1.00;;;;;;5119445;27;20453;-73
2023/08/01 09:10:11;;;;;;;2.90;2.30;;;22.40;1.00;;;;;;5121027;27;20501;-71
2023/08/01 09:12:38;;;;;;;4.07;2.70;;;22.60;1.00;;;;;;5119436;27;20463;-72
2023/08/01 09:15:06;;;;;;;2.30;2.10;;;22.80;1.00;;;;;;5118487;27;20474;-71
2023/08/01 09:17:33;;;;;;;2.10;1.73;;;22.90;1.00;;;;;;5116966;27;20876;-71
2023/08/01 09:20:06;;;;;;;1.87;1.63;;;23.00;1.00;;;;;;5113609;27;20462;-71
2023/08/01 09:22:44;;;;;;;2.30;2.10;;;23.20;1.00;;;;;;5121888;27;20439;-73
2023/08/01 09:25:12;;;;;;;2.00;1.80;;;23.40;1.00;;;;;;5117391;27;21654;-71
2023/08/01 09:27:39;;;;;;;1.70;1.60;;;23.50;1.00;;;;;;5119671;27;20483;-72
2023/08/01 09:30:11;;;;;;;1.43;1.33;;;23.60;1.00;;;;;;5104822;27;20521;-71
2023/08/01 09:32:38;;;;;;;2.00;1.70;;;23.50;1.00;;;;;;5108125;27;20456;-71
2023/08/01 09:35:07;;;;;;;2.20;1.40;;;23.60;1.00;;;;;;5114519;27;20507;-71
2023/08/01 09:37:52;;;;;;;2.40;1.30;;;23.70;1.00;;;;;;5117269;27;20451;-71
2023/08/01 09:40:20;;;;;;;1.50;1.10;;;23.70;1.00;;;;;;5119263;27;20839;-70
2023/08/01 09:42:47;;;;;;;1.27;1.10;;;23.70;1.00;;;;;;5120322;27;20578;-71
2023/08/01 09:45:15;;;;;;;1.80;1.10;;;23.50;1.00;;;;;;5115562;27;20956;-71
2023/08/01 09:47:42;;;;;;;2.70;1.50;;;23.30;1.00;;;;;;5117345;27;20474;-72
2023/08/01 09:50:11;;;;;;;2.13;1.27;;;23.00;1.00;;;;;;5118138;27;20512;-70
2023/08/01 09:52:38;;;;;;;1.50;1.40;;;22.30;1.00;;;;;;5119203;27;20988;-73
2023/08/01 09:55:07;;;;;;;1.90;1.00;;;21.70;1.00;;;;;;5117218;27;20920;-71
2023/08/01 09:57:39;;;;;;;4.13;1.27;;;21.50;1.00;;;;;;5117965;27;20494;-73
2023/08/01 10:00:09;;;;;;;1.20;1.10;;;21.50;1.00;;;;;;5116473;27;20473;-72
2023/08/01 10:02:38;;;;;;;1.20;0.90;;;21.80;1.00;;;;;;5114893;27;20463;-72
2023/08/01 10:05:07;;;;;;;1.50;0.97;;;22.40;1.00;;;;;;5116707;27;20535;-73
2023/08/01 10:07:35;;;;;;;1.77;1.57;;;22.80;1.00;;;;;;5119870;27;20465;-70
2023/08/01 10:10:03;;;;;;;2.07;0.90;;;23.00;1.00;;;;;;5114127;27;20531;-72
2023/08/01 10:12:33;;;;;;;1.30;1.20;;;23.00;1.00;;;;;;5098071;27;20456;-73
2023/08/01 10:15:00;;;;;;;1.10;1.00;;;23.00;1.00;;;;;;5114190;27;20464;-72
2023/08/01 10:17:29;;;;;;;2.13;1.40;;;22.90;1.00;;;;;;5116081;27;20530;-72
2023/08/01 10:19:58;;;;;;;1.40;1.07;;;22.80;1.00;;;;;;5116752;27;20939;-71
2023/08/01 10:22:26;;;;;;;1.10;1.00;;;22.70;1.00;;;;;;5118567;27;20477;-72
2023/08/01 10:24:54;;;;;;;1.03;0.83;;;22.60;1.00;;;;;;5114315;27;20520;-73
2023/08/01 10:27:22;;;;;;;1.30;1.20;;;22.50;1.00;;;;;;5115932;27;20457;-71
2023/08/01 10:29:59;;;;;;;2.47;1.80;;;22.40;1.00;;;;;;5113844;27;20486;-73
2023/08/01 10:32:32;;;;;;;1.30;1.20;;;22.30;1.00;;;;;;5083023;27;20519;-70
2023/08/01 10:34:59;;;;;;;2.53;1.27;;;22.20;1.00;;;;;;5115031;27;20477;-72
2023/08/01 10:37:26;;;;;;;1.60;1.30;;;22.30;1.00;;;;;;5114692;27;20431;-73
2023/08/01 10:40:00;;;;;;;2.10;1.70;;;22.50;1.00;;;;;;5121482;27;20464;-71
2023/08/01 10:42:38;;;;;;;1.73;1.00;;;22.50;1.00;;;;;;5112700;27;20466;-71
2023/08/01 10:45:20;;;;;;;1.80;1.20;;;22.40;1.00;;;;;;5104816;28;20988;-72
2023/08/01 10:47:47;;;;;;;2.00;1.10;;;22.40;1.00;;;;;;5111204;27;20457;-72
2023/08/01 10:50:16;;;;;;;4.10;1.77;;;22.20;1.00;;;;;;5115552;27;20547;-71
2023/08/01 10:52:44;;;;;;;1.43;1.30;;;22.30;1.00;;;;;;5116625;27;20462;-71
2023/08/01 10:55:12;;;;;;;4.57;1.50;;;22.20;1.00;;;;;;5114492;27;20489;-72
2023/08/01 10:57:41;;;;;;;3.97;1.70;;;21.70;1.00;;;;;;5115351;27;20451;-76
2023/08/01 11:00:10;;;;;;;2.37;1.40;;;20.60;1.00;;;;;;5116858;27;20487;-73
2023/08/01 11:02:38;;;;;;;2.20;1.60;;;19.90;1.00;;;;;;5117088;27;21157;-72
2023/08/01 11:05:07;;;;;;;2.30;1.87;;;19.40;1.00;;;;;;5116828;27;20568;-71
2023/08/01 11:07:36;;;;;;;2.00;1.20;;;19.20;1.00;;;;;;5115448;27;20476;-73
2023/08/01 11:10:08;;;;;;;2.00;1.87;;;19.00;1.00;;;;;;5114468;27;20463;-73
2023/08/01 11:12:37;;;;;;;1.70;1.30;;;18.90;1.00;;;;;;5121111;27;20455;-72
2023/08/01 11:15:05;;;;;;;3.70;3.00;;;18.90;1.00;;;;;;5115605;27;20596;-73
2023/08/01 11:17:34;;;;;;;1.40;1.20;;;18.80;1.00;;;;;;5111082;27;21388;-73
2023/08/01 11:20:04;;;;;;;2.17;1.73;;;18.80;1.00;;;;;;5116702;27;20469;-72
2023/08/01 11:22:31;;;;;;;1.67;1.57;;;18.70;1.00;;;;;;5118372;27;20995;-73
2023/08/01 11:24:59;;;;;;;1.70;1.60;;;18.80;1.00;;;;;;5119956;27;20557;-73
2023/08/01 11:27:27;;;;;;;2.43;1.70;;;18.70;1.00;;;;;;5110395;27;20444;-72
2023/08/01 11:29:54;;;;;;;1.80;1.47;;;18.70;1.00;;;;;;5115847;27;20524;-71
2023/08/01 11:32:23;;;;;;;2.60;2.00;;;18.60;1.00;;;;;;5114173;27;20473;-73
2023/08/01 11:34:51;;;;;;;2.17;1.70;;;18.50;1.00;;;;;;5115899;27;20472;-73
2023/08/01 11:37:20;;;;;;;1.60;1.50;;;18.60;1.00;;;;;;5114352;27;20454;-73
2023/08/01 11:39:48;;;;;;;1.70;1.50;;;18.70;1.00;;;;;;5116768;27;20547;-73
2023/08/01 11:42:17;;;;;;;1.80;1.70;;;18.70;1.00;;;;;;5118366;27;20538;-71
2023/08/01 11:44:45;;;;;;;4.30;2.63;;;18.70;1.00;;;;;;5113644;27;20440;-71
2023/08/01 11:47:14;;;;;;;2.93;2.70;;;18.60;1.00;;;;;;5114269;27;20456;-71
2023/08/01 11:49:46;;;;;;;3.70;2.43;;;18.60;1.00;;;;;;5115890;27;20507;-71
2023/08/01 11:52:24;;;;;;;3.70;3.40;;;18.70;1.00;;;;;;5098589;27;20471;-72
2023/08/01 11:54:52;;;;;;;5.40;4.90;;;18.80;1.00;;;;;;5117634;27;20484;-71
2023/08/01 11:57:19;;;;;;;3.50;3.10;;;18.90;1.00;;;;;;5117734;27;20441;-69
2023/08/01 11:59:49;;;;;;;4.53;3.37;;;18.90;1.00;;;;;;5115476;27;20450;-71
2023/08/01 12:02:27;;;;;;;4.63;3.60;;;19.00;1.00;;;;;;5105841;27;20470;-72
2023/08/01 12:04:55;;;;;;;4.30;3.40;;;19.10;1.00;;;;;;5115938;27;20567;-71
2023/08/01 12:07:22;;;;;;;4.87;3.60;;;19.20;1.00;;;;;;5118580;27;20571;-72
2023/08/01 12:09:58;;;;;;;4.07;3.67;;;19.20;1.00;;;;;;5118075;27;20487;-71
2023/08/01 12:12:27;;;;;;;4.10;3.70;;;19.30;1.00;;;;;;5115355;27;20452;-71
2023/08/01 12:14:55;;;;;;;5.20;4.20;;;19.60;1.00;;;;;;5118696;27;20468;-71
2023/08/01 12:17:22;;;;;;;3.70;3.27;;;19.90;1.00;;;;;;5114120;27;20987;-71
2023/08/01 12:19:49;;;;;;;3.90;3.37;;;20.40;1.00;;;;;;5121651;27;20564;-71
2023/08/01 12:22:16;;;;;;;3.97;3.67;;;21.70;1.00;;;;;;5120296;27;20510;-73
2023/08/01 12:24:43;;;;;;;3.60;3.30;;;22.90;1.00;;;;;;5116790;28;20563;-72
2023/08/01 12:27:12;;;;;;;4.50;3.00;;;23.20;1.00;;;;;;5119904;27;21070;-72
2023/08/01 12:29:39;;;;;;;4.90;3.73;;;23.10;1.00;;;;;;5116061;27;20892;-70
2023/08/01 12:32:07;;;;;;;5.10;3.80;;;22.60;1.00;;;;;;5116446;27;20544;-70
2023/08/01 12:34:35;;;;;;;3.77;3.47;;;22.10;1.00;;;;;;5118582;27;20469;-71
2023/08/01 12:37:02;;;;;;;4.30;3.90;;;21.60;1.00;;;;;;5114118;27;20456;-72
2023/08/01 12:39:29;;;;;;;4.53;3.70;;;21.60;1.00;;;;;;5122757;27;20467;-73
2023/08/01 12:41:56;;;;;;;4.67;3.93;;;21.90;1.00;;;;;;5117279;27;20464;-76
2023/08/01 12:44:24;;;;;;;4.10;3.60;;;22.40;1.00;;;;;;5087900;27;20464;-72
2023/08/01 12:46:51;;;;;;;4.03;3.73;;;23.50;1.00;;;;;;5113797;27;20484;-72
2023/08/01 12:49:19;;;;;;;3.80;3.07;;;25.30;1.00;;;;;;5118954;27;20503;-74
2023/08/01 12:51:46;;;;;;;4.37;3.17;;;27.80;1.00;;;;;;5120055;27;20468;-72
2023/08/01 12:54:13;;;;;;;6.20;3.50;;;29.10;1.00;;;;;;5113877;27;20535;-71
2023/08/01 12:56:40;;;;;;;5.93;3.40;;;28.50;1.00;;;;;;5115005;27;20451;-72
2023/08/01 12:59:08;;;;;;;4.33;3.40;;;27.80;1.00;;;;;;5095209;27;20948;-70
2023/08/01 13:01:36;;;;;;;5.20;3.70;;;26.90;1.00;;;;;;5118092;27;20453;-71
2023/08/01 13:04:03;;;;;;;6.50;3.90;;;26.10;1.00;;;;;;5114476;27;20845;-71
2023/08/01 13:06:30;;;;;;;4.10;3.80;;;25.60;1.00;;;;;;5116240;27;20470;-71
2023/08/01 13:08:58;;;;;;;4.13;3.73;;;25.10;1.00;;;;;;5117932;27;20528;-74
2023/08/01 13:11:27;;;;;;;4.60;4.07;;;25.00;1.00;;;;;;5111562;27;20492;-72